Time;durP1;ratioP1;P1;durP2;ratioP2;P2;SDS_P1;SDS_P2;PMS_P1;PMS_P2;Temp;Humidity;BMP_temperature;BMP_pressure;BME280_temperature;BME280_humidity;BME280_pressure;Samples;Min_cycle;Max_cycle;Signal;HPM_P1;HPM_P2
2021/12/22 08:31:10;;;;;;;23.42;10.48;;;;;;;;;;5110080;27;20388;-85
2021/12/22 08:33:43;;;;;;;25.73;12.82;;;;;;;;;;5082008;28;20094;-89
2021/12/22 08:38:54;;;;;;;22.48;11.30;;;;;;;;;;5090777;28;20535;-88
2021/12/22 08:41:25;;;;;;;22.88;10.88;;;;;;;;;;5072210;28;20039;-89
2021/12/22 08:43:53;;;;;;;23.23;11.13;;;;;;;;;;5089303;28;20466;-88
2021/12/22 08:46:19;;;;;;;21.52;12.00;;;;;;;;;;5089005;28;20101;-87
2021/12/22 08:48:45;;;;;;;20.27;11.82;;;;;;;;;;5089002;28;20087;-90
2021/12/22 08:51:11;;;;;;;22.02;11.10;;;;;;;;;;5089209;28;20038;-90
2021/12/22 08:53:37;;;;;;;21.52;11.45;;;;;;;;;;5090671;28;20036;-88
2021/12/22 08:56:04;;;;;;;21.65;11.02;;;;;;;;;;5088883;28;20131;-88
2021/12/22 08:58:30;;;;;;;22.88;12.13;;;;;;;;;;5090098;28;20123;-88
2021/12/22 09:00:56;;;;;;;20.67;11.93;;;;;;;;;;5089978;28;20078;-88
2021/12/22 09:03:22;;;;;;;23.17;12.10;;;;;;;;;;5090214;28;20037;-88
2021/12/22 09:05:48;;;;;;;27.80;11.30;;;;;;;;;;5089980;28;20044;-88
2021/12/22 09:08:14;;;;;;;25.83;11.95;;;;;;;;;;5072072;28;20089;-86
2021/12/22 09:10:40;;;;;;;27.58;12.40;;;;;;;;;;5088323;28;20125;-88
2021/12/22 09:13:06;;;;;;;22.52;12.38;;;;;;;;;;5071651;28;20091;-88
2021/12/22 09:15:32;;;;;;;22.25;11.80;;;;;;;;;;5088512;28;20063;-88
2021/12/22 09:17:58;;;;;;;25.23;12.38;;;;;;;;;;5088586;28;20036;-88
2021/12/22 09:20:24;;;;;;;25.30;11.43;;;;;;;;;;5088522;28;20048;-88
2021/12/22 09:22:50;;;;;;;21.08;11.07;;;;;;;;;;5088393;28;20048;-87
2021/12/22 09:25:16;;;;;;;23.20;11.95;;;;;;;;;;5089411;28;20376;-88
2021/12/22 09:27:42;;;;;;;26.00;11.88;;;;;;;;;;5089560;28;20101;-89
2021/12/22 09:30:09;;;;;;;21.38;11.73;;;;;;;;;;5087571;28;20531;-89
2021/12/22 09:32:35;;;;;;;21.73;11.48;;;;;;;;;;5088284;28;20044;-88
2021/12/22 09:35:01;;;;;;;27.08;12.35;;;;;;;;;;5088187;28;20548;-87
2021/12/22 09:37:27;;;;;;;22.20;12.10;;;;;;;;;;5088002;28;20535;-87
2021/12/22 09:39:53;;;;;;;20.60;12.00;;;;;;;;;;5088138;28;20131;-87
2021/12/22 09:42:19;;;;;;;19.02;11.25;;;;;;;;;;5075880;28;20040;-88
2021/12/22 09:44:46;;;;;;;23.02;11.68;;;;;;;;;;5074343;28;20123;-88
2021/12/22 09:47:15;;;;;;;21.92;11.85;;;;;;;;;;5074696;28;20135;-87
2021/12/22 09:52:21;;;;;;;25.80;12.93;;;;;;;;;;5075502;28;20531;-89
2021/12/22 09:54:48;;;;;;;24.35;12.13;;;;;;;;;;5074614;28;20049;-89
2021/12/22 09:57:16;;;;;;;20.80;13.18;;;;;;;;;;5074316;28;20052;-87
2021/12/22 09:59:43;;;;;;;23.35;11.43;;;;;;;;;;5074508;28;20047;-88
2021/12/22 10:02:09;;;;;;;23.45;11.77;;;;;;;;;;5073911;28;20045;-91
2021/12/22 10:04:35;;;;;;;23.17;11.07;;;;;;;;;;5075195;28;20040;-88
2021/12/22 10:07:01;;;;;;;21.52;12.07;;;;;;;;;;5073946;28;20044;-88
2021/12/22 10:09:29;;;;;;;23.02;11.35;;;;;;;;;;5073920;28;20060;-88
2021/12/22 10:11:55;;;;;;;21.63;11.88;;;;;;;;;;5073813;28;20044;-87
2021/12/22 10:14:25;;;;;;;25.75;12.88;;;;;;;;;;5073661;28;20036;-86
2021/12/22 10:16:53;;;;;;;21.73;11.05;;;;;;;;;;5056873;28;20051;-86
2021/12/22 10:19:20;;;;;;;19.88;11.40;;;;;;;;;;5075160;28;20068;-85
2021/12/22 10:21:57;;;;;;;23.52;12.18;;;;;;;;;;5073221;28;20044;-85
2021/12/22 10:24:40;;;;;;;30.38;14.48;;;;;;;;;;5074590;28;20048;-85
2021/12/22 10:27:07;;;;;;;23.17;12.05;;;;;;;;;;5073346;28;20094;-85
2021/12/22 10:29:34;;;;;;;24.17;11.95;;;;;;;;;;5073159;28;20102;-86
2021/12/22 10:32:26;;;;;;;20.90;11.65;;;;;;;;;;5074094;28;20059;-86
2021/12/22 10:34:54;;;;;;;20.25;11.35;;;;;;;;;;5051432;28;20482;-86
2021/12/22 10:37:37;;;;;;;20.55;10.73;;;;;;;;;;5056493;28;20052;-86
2021/12/22 10:40:21;;;;;;;19.67;10.90;;;;;;;;;;5053240;28;20049;-86
2021/12/22 10:42:47;;;;;;;19.88;11.73;;;;;;;;;;5053322;28;20506;-85
2021/12/22 10:45:14;;;;;;;19.25;11.32;;;;;;;;;;5054594;28;20128;-85
2021/12/22 10:50:32;;;;;;;20.45;11.45;;;;;;;;;;5054238;28;20041;-86
2021/12/22 10:52:58;;;;;;;24.00;11.48;;;;;;;;;;5051961;28;20044;-86
2021/12/22 10:55:24;;;;;;;20.40;11.90;;;;;;;;;;5056624;28;20113;-86
2021/12/22 10:57:50;;;;;;;19.83;11.07;;;;;;;;;;5048200;28;20505;-86
2021/12/22 11:00:19;;;;;;;23.25;12.32;;;;;;;;;;5072823;28;20044;-85
2021/12/22 11:02:50;;;;;;;20.10;10.77;;;;;;;;;;5073192;28;20052;-86
2021/12/22 11:05:17;;;;;;;19.02;11.10;;;;;;;;;;5072963;28;20071;-86
2021/12/22 11:07:43;;;;;;;21.17;11.45;;;;;;;;;;5073992;28;20040;-86
2021/12/22 11:10:29;;;;;;;22.88;11.15;;;;;;;;;;5073770;28;20047;-86
2021/12/22 11:13:04;;;;;;;16.92;10.00;;;;;;;;;;5073663;28;20043;-85
2021/12/22 11:15:31;;;;;;;20.05;10.50;;;;;;;;;;5074012;28;20493;-86
2021/12/22 11:17:57;;;;;;;22.27;12.02;;;;;;;;;;5072350;28;20094;-85
2021/12/22 11:20:23;;;;;;;23.48;11.85;;;;;;;;;;5072472;28;20048;-86
2021/12/22 11:23:04;;;;;;;20.63;10.80;;;;;;;;;;5072046;28;20044;-85
2021/12/22 11:25:31;;;;;;;25.45;11.40;;;;;;;;;;5073822;28;20041;-87
2021/12/22 11:27:58;;;;;;;21.08;11.68;;;;;;;;;;5072072;28;20090;-88
2021/12/22 11:30:26;;;;;;;20.85;11.77;;;;;;;;;;5073569;28;20087;-86
2021/12/22 11:32:53;;;;;;;20.40;10.88;;;;;;;;;;5073428;28;20048;-86
2021/12/22 11:35:19;;;;;;;20.00;10.85;;;;;;;;;;5072357;28;20102;-86
2021/12/22 11:37:45;;;;;;;20.60;11.48;;;;;;;;;;5072928;28;20075;-85
2021/12/22 11:40:12;;;;;;;19.67;10.77;;;;;;;;;;5072022;28;20420;-86
2021/12/22 11:42:39;;;;;;;20.30;10.35;;;;;;;;;;5071736;28;20048;-86
2021/12/22 11:45:15;;;;;;;19.05;10.35;;;;;;;;;;5071906;28;20467;-85
2021/12/22 11:47:43;;;;;;;19.90;10.57;;;;;;;;;;5071786;28;20127;-86
2021/12/22 11:50:23;;;;;;;19.77;10.27;;;;;;;;;;5071828;28;20044;-86
2021/12/22 11:52:59;;;;;;;19.65;9.90;;;;;;;;;;5072976;28;20040;-86
2021/12/22 11:55:38;;;;;;;17.73;10.30;;;;;;;;;;5072031;28;20040;-85
2021/12/22 11:58:18;;;;;;;20.63;11.13;;;;;;;;;;5073073;28;20430;-85
2021/12/22 12:00:45;;;;;;;18.70;9.93;;;;;;;;;;5073101;28;20047;-88
2021/12/22 12:03:44;;;;;;;20.33;10.13;;;;;;;;;;5071428;28;20123;-86
2021/12/22 12:06:17;;;;;;;19.25;10.38;;;;;;;;;;5069015;28;20045;-87
2021/12/22 12:08:49;;;;;;;18.13;9.63;;;;;;;;;;5073177;28;20047;-85
2021/12/22 12:11:20;;;;;;;19.27;10.60;;;;;;;;;;5071385;28;20037;-87
2021/12/22 12:14:01;;;;;;;19.05;10.25;;;;;;;;;;5072704;28;20483;-85
2021/12/22 12:22:09;;;;;;;18.88;10.25;;;;;;;;;;5072767;28;20040;-86
2021/12/22 12:24:37;;;;;;;18.98;10.63;;;;;;;;;;5071957;28;20152;-86
2021/12/22 12:27:22;;;;;;;18.17;10.32;;;;;;;;;;5071433;28;20079;-86
2021/12/22 12:30:03;;;;;;;16.73;10.10;;;;;;;;;;5072748;28;20070;-86
2021/12/22 12:32:51;;;;;;;19.55;10.35;;;;;;;;;;5071238;28;20049;-85
2021/12/22 12:35:21;;;;;;;20.60;9.80;;;;;;;;;;5072915;28;20491;-85
2021/12/22 12:38:07;;;;;;;26.70;9.82;;;;;;;;;;5071091;28;20167;-86
2021/12/22 12:40:33;;;;;;;;;;;;;;;;;;5071947;28;20048;-85
2021/12/22 12:42:59;;;;;;;16.63;9.10;;;;;;;;;;5105164;28;19923;-86
2021/12/22 12:45:44;;;;;;;17.27;9.25;;;;;;;;;;5072819;28;20041;-86
2021/12/22 12:48:27;;;;;;;17.92;9.57;;;;;;;;;;5072427;28;20041;-85
2021/12/22 12:51:15;;;;;;;20.05;9.98;;;;;;;;;;5071321;28;20048;-86
2021/12/22 12:53:42;;;;;;;18.52;9.65;;;;;;;;;;5072214;28;20052;-86
2021/12/22 12:56:09;;;;;;;18.20;9.70;;;;;;;;;;5071294;28;20093;-85
2021/12/22 12:58:35;;;;;;;19.55;10.27;;;;;;;;;;5071266;28;20048;-86
2021/12/22 13:01:01;;;;;;;16.67;9.88;;;;;;;;;;5072428;28;20507;-86
2021/12/22 13:03:27;;;;;;;20.45;10.15;;;;;;;;;;5071111;28;20051;-85
2021/12/22 13:05:53;;;;;;;16.08;9.23;;;;;;;;;;5071354;28;20157;-86
2021/12/22 13:08:19;;;;;;;21.33;9.68;;;;;;;;;;5071144;28;20048;-85
2021/12/22 13:10:51;;;;;;;16.67;9.48;;;;;;;;;;5071043;28;20415;-86
2021/12/22 13:13:20;;;;;;;15.80;9.63;;;;;;;;;;5070732;28;20053;-86
2021/12/22 13:15:46;;;;;;;16.88;9.60;;;;;;;;;;5071450;28;20048;-86
2021/12/22 13:18:12;;;;;;;20.23;9.77;;;;;;;;;;5075275;28;20051;-86
2021/12/22 13:20:40;;;;;;;19.25;9.98;;;;;;;;;;5075962;28;20044;-86
2021/12/22 13:23:12;;;;;;;16.23;9.57;;;;;;;;;;5075709;28;20041;-86
2021/12/22 13:25:39;;;;;;;17.38;10.25;;;;;;;;;;5074779;28;20047;-86
2021/12/22 13:28:10;;;;;;;17.73;9.52;;;;;;;;;;5075890;28;20112;-85
2021/12/22 13:30:38;;;;;;;19.50;10.02;;;;;;;;;;5075529;28;20055;-86
2021/12/22 13:33:17;;;;;;;17.75;9.60;;;;;;;;;;5074537;28;20172;-86
2021/12/22 13:35:45;;;;;;;17.42;9.75;;;;;;;;;;5074454;28;20090;-86
2021/12/22 13:38:11;;;;;;;19.23;9.43;;;;;;;;;;5074323;28;20072;-85
2021/12/22 13:40:42;;;;;;;17.70;9.50;;;;;;;;;;5074352;28;20044;-86
2021/12/22 13:43:16;;;;;;;19.52;10.93;;;;;;;;;;5075476;28;20040;-84
2021/12/22 13:45:42;;;;;;;20.13;9.70;;;;;;;;;;5057660;28;20048;-86
2021/12/22 13:48:14;;;;;;;19.60;11.00;;;;;;;;;;5073957;28;20056;-85
2021/12/22 13:50:42;;;;;;;19.67;10.48;;;;;;;;;;5074105;28;20503;-85
2021/12/22 13:53:08;;;;;;;21.48;11.10;;;;;;;;;;5075393;28;20043;-85
2021/12/22 13:55:34;;;;;;;23.30;17.50;;;;;;;;;;5074169;28;20036;-85
2021/12/22 13:57:59;;;;;;;18.33;10.55;;;;;;;;;;5075162;28;20044;-85
2021/12/22 14:00:25;;;;;;;23.48;10.57;;;;;;;;;;5074152;28;20549;-86
2021/12/22 14:02:51;;;;;;;19.15;10.18;;;;;;;;;;5074043;28;20419;-86
2021/12/22 14:05:19;;;;;;;21.55;11.23;;;;;;;;;;5075191;28;20036;-86
2021/12/22 14:07:45;;;;;;;17.77;9.75;;;;;;;;;;5075254;28;20418;-86
2021/12/22 14:10:12;;;;;;;17.80;9.88;;;;;;;;;;5076002;28;20076;-86
2021/12/22 14:12:40;;;;;;;16.95;9.75;;;;;;;;;;5073569;28;20089;-87
2021/12/22 14:15:07;;;;;;;19.48;10.30;;;;;;;;;;5075265;28;20041;-86
2021/12/22 14:17:36;;;;;;;18.35;10.82;;;;;;;;;;5074731;28;20124;-86
2021/12/22 14:20:09;;;;;;;18.52;10.18;;;;;;;;;;5073925;28;20052;-86
2021/12/22 14:22:36;;;;;;;20.42;11.88;;;;;;;;;;5073344;28;20059;-87
2021/12/22 14:25:02;;;;;;;19.30;10.80;;;;;;;;;;5073551;28;20040;-86
2021/12/22 14:27:39;;;;;;;21.92;12.88;;;;;;;;;;5073447;28;20044;-85
2021/12/22 14:30:11;;;;;;;27.92;19.63;;;;;;;;;;5073323;28;20083;-86
2021/12/22 14:32:38;;;;;;;29.23;14.25;;;;;;;;;;5073661;28;20036;-87
2021/12/22 14:35:08;;;;;;;24.58;13.35;;;;;;;;;;5073654;28;20047;-85
2021/12/22 14:37:34;;;;;;;18.90;11.10;;;;;;;;;;5073949;28;20041;-85
2021/12/22 14:40:00;;;;;;;20.25;11.55;;;;;;;;;;5074416;28;20427;-85
2021/12/22 14:42:31;;;;;;;19.52;10.98;;;;;;;;;;5073150;28;20049;-85
2021/12/22 14:45:20;;;;;;;23.67;12.07;;;;;;;;;;5072980;28;20045;-86
2021/12/22 14:48:00;;;;;;;21.40;10.95;;;;;;;;;;5074643;28;20033;-87
2021/12/22 14:50:26;;;;;;;19.88;11.00;;;;;;;;;;5056411;28;20052;-85
2021/12/22 14:52:56;;;;;;;20.70;12.25;;;;;;;;;;5072966;28;20123;-87
2021/12/22 14:55:42;;;;;;;20.30;12.85;;;;;;;;;;5073194;28;20048;-86
2021/12/22 14:58:08;;;;;;;;;;;;;;;;;;5074451;28;20082;-86
2021/12/22 15:00:34;;;;;;;22.15;12.18;;;;;;;;;;5072901;28;20013;-86
2021/12/22 15:03:00;;;;;;;23.38;12.50;;;;;;;;;;5072821;28;20123;-85
2021/12/22 15:05:26;;;;;;;23.65;12.23;;;;;;;;;;5074092;28;20178;-85
2021/12/22 15:07:52;;;;;;;18.85;10.98;;;;;;;;;;5072768;28;20395;-86
2021/12/22 15:10:19;;;;;;;23.30;11.13;;;;;;;;;;5073850;28;20071;-85
2021/12/22 15:12:45;;;;;;;21.90;11.40;;;;;;;;;;5072798;28;20169;-86
2021/12/22 15:15:11;;;;;;;23.90;12.25;;;;;;;;;;5072633;28;20123;-86
2021/12/22 15:17:37;;;;;;;21.25;11.20;;;;;;;;;;5073857;28;20043;-86
2021/12/22 15:20:03;;;;;;;19.38;11.60;;;;;;;;;;5072288;28;20483;-85
2021/12/22 15:22:30;;;;;;;19.52;10.75;;;;;;;;;;5073845;28;20036;-86
2021/12/22 15:24:56;;;;;;;17.85;10.65;;;;;;;;;;5073414;28;20534;-85
2021/12/22 15:27:22;;;;;;;21.52;12.13;;;;;;;;;;5072834;28;20040;-85
2021/12/22 15:29:48;;;;;;;17.50;10.40;;;;;;;;;;5073235;28;20516;-85
2021/12/22 15:32:14;;;;;;;20.48;11.52;;;;;;;;;;5072266;28;20048;-86
2021/12/22 15:34:40;;;;;;;22.02;11.20;;;;;;;;;;5071895;28;20105;-85
2021/12/22 15:37:06;;;;;;;23.27;12.73;;;;;;;;;;5072093;28;20098;-85
2021/12/22 15:39:32;;;;;;;26.95;21.13;;;;;;;;;;5071432;28;20423;-85
2021/12/22 15:41:58;;;;;;;19.40;11.68;;;;;;;;;;5073466;28;20040;-85
2021/12/22 15:44:24;;;;;;;20.75;11.10;;;;;;;;;;5071988;28;20052;-85
2021/12/22 15:46:50;;;;;;;19.58;11.63;;;;;;;;;;5055367;28;20051;-85
2021/12/22 15:49:17;;;;;;;19.35;11.95;;;;;;;;;;5071633;28;20044;-85
2021/12/22 15:51:43;;;;;;;18.00;10.48;;;;;;;;;;5071796;28;20048;-84
2021/12/22 15:54:09;;;;;;;24.13;13.32;;;;;;;;;;5054961;28;20058;-86
2021/12/22 15:56:35;;;;;;;19.30;10.75;;;;;;;;;;5072173;28;20040;-85
2021/12/22 15:59:01;;;;;;;20.88;11.90;;;;;;;;;;5071694;28;20045;-85
2021/12/22 16:01:27;;;;;;;20.50;11.98;;;;;;;;;;5073299;28;20064;-85
2021/12/22 16:03:53;;;;;;;18.50;11.00;;;;;;;;;;5072944;28;20076;-85
2021/12/22 16:06:19;;;;;;;19.02;11.13;;;;;;;;;;5073177;28;20043;-86
2021/12/22 16:08:45;;;;;;;21.15;11.32;;;;;;;;;;5071579;28;20072;-84
2021/12/22 16:11:11;;;;;;;19.63;11.40;;;;;;;;;;5071601;28;20041;-85
2021/12/22 16:13:37;;;;;;;24.05;11.63;;;;;;;;;;5071437;28;20068;-86
2021/12/22 16:16:03;;;;;;;22.55;11.52;;;;;;;;;;5073025;28;20052;-86
2021/12/22 16:18:30;;;;;;;21.85;12.07;;;;;;;;;;5071925;28;20052;-88
2021/12/22 16:20:57;;;;;;;24.00;13.63;;;;;;;;;;5071448;28;20048;-85
2021/12/22 16:23:29;;;;;;;23.90;13.57;;;;;;;;;;5071382;28;20048;-85
2021/12/22 16:25:55;;;;;;;21.73;12.18;;;;;;;;;;5071362;28;20123;-85
2021/12/22 16:28:21;;;;;;;18.88;11.52;;;;;;;;;;5071472;28;20040;-85
2021/12/22 16:30:47;;;;;;;19.83;10.73;;;;;;;;;;5071159;28;20502;-85
2021/12/22 16:33:13;;;;;;;16.75;10.18;;;;;;;;;;5071698;28;20075;-86
2021/12/22 16:35:39;;;;;;;16.85;10.18;;;;;;;;;;5072693;28;20064;-86
2021/12/22 16:38:05;;;;;;;18.10;10.73;;;;;;;;;;5071359;28;20487;-85
2021/12/22 16:40:31;;;;;;;18.67;10.95;;;;;;;;;;5071427;28;20049;-86
2021/12/22 16:42:57;;;;;;;17.48;9.88;;;;;;;;;;5071786;28;20036;-85
2021/12/22 16:45:24;;;;;;;18.52;10.60;;;;;;;;;;5072392;28;20502;-85
2021/12/22 16:47:52;;;;;;;18.65;11.73;;;;;;;;;;5072616;28;20040;-85
2021/12/22 16:50:19;;;;;;;17.08;9.85;;;;;;;;;;5072355;28;20053;-85
2021/12/22 16:52:46;;;;;;;20.02;10.60;;;;;;;;;;5076242;28;20040;-86
2021/12/22 16:55:12;;;;;;;19.52;10.13;;;;;;;;;;5075105;28;20044;-85
2021/12/22 16:57:38;;;;;;;17.83;10.07;;;;;;;;;;5075615;28;20396;-86
2021/12/22 17:00:09;;;;;;;19.05;11.13;;;;;;;;;;5076445;28;20036;-85
2021/12/22 17:02:35;;;;;;;18.23;10.30;;;;;;;;;;5108929;28;20044;-86
2021/12/22 17:05:01;;;;;;;48.90;26.50;;;;;;;;;;5076188;28;20040;-85
2021/12/22 17:07:28;;;;;;;25.52;15.25;;;;;;;;;;5076435;28;20437;-85
2021/12/22 17:09:53;;;;;;;18.40;10.48;;;;;;;;;;5075997;28;20074;-86
2021/12/22 17:12:19;;;;;;;20.77;10.55;;;;;;;;;;5074907;28;20041;-86
2021/12/22 17:14:47;;;;;;;32.70;18.60;;;;;;;;;;5074813;28;20039;-85
2021/12/22 17:17:19;;;;;;;33.78;21.08;;;;;;;;;;5076644;28;20051;-85
2021/12/22 17:19:45;;;;;;;26.75;17.55;;;;;;;;;;5074638;28;20147;-85
2021/12/22 17:22:11;;;;;;;20.92;14.00;;;;;;;;;;5058345;28;20085;-85
2021/12/22 17:24:37;;;;;;;17.80;11.18;;;;;;;;;;5075863;28;20043;-85
2021/12/22 17:27:04;;;;;;;17.15;10.48;;;;;;;;;;5075882;28;20044;-84
2021/12/22 17:29:31;;;;;;;17.08;11.07;;;;;;;;;;5075370;28;20488;-85
2021/12/22 17:31:57;;;;;;;21.50;12.57;;;;;;;;;;5076055;28;20045;-85
2021/12/22 17:34:24;;;;;;;17.38;12.23;;;;;;;;;;5075891;28;20101;-84
2021/12/22 17:36:50;;;;;;;18.75;11.70;;;;;;;;;;5074649;28;20370;-85
2021/12/22 17:39:16;;;;;;;23.17;10.77;;;;;;;;;;5074654;28;20131;-85
2021/12/22 17:41:42;;;;;;;17.58;10.75;;;;;;;;;;5074388;28;20106;-84
2021/12/22 17:44:09;;;;;;;17.35;10.57;;;;;;;;;;5075761;28;20124;-85
2021/12/22 17:46:35;;;;;;;19.77;11.80;;;;;;;;;;5057455;28;20043;-85
2021/12/22 17:49:01;;;;;;;15.77;9.63;;;;;;;;;;5075636;28;20072;-84
2021/12/22 17:51:27;;;;;;;16.92;9.30;;;;;;;;;;5075472;28;20045;-84
2021/12/22 17:53:53;;;;;;;19.08;11.85;;;;;;;;;;5074086;28;20460;-84
2021/12/22 17:56:20;;;;;;;16.20;9.60;;;;;;;;;;5073866;28;20040;-83
2021/12/22 17:58:46;;;;;;;16.80;9.55;;;;;;;;;;5075587;28;20041;-84
2021/12/22 18:01:12;;;;;;;22.02;15.02;;;;;;;;;;5073775;28;20452;-83
2021/12/22 18:03:39;;;;;;;15.63;9.60;;;;;;;;;;5073426;28;20288;-84
2021/12/22 18:06:18;;;;;;;19.00;10.35;;;;;;;;;;5073988;28;20483;-83
2021/12/22 18:08:44;;;;;;;17.30;10.02;;;;;;;;;;5057120;28;20036;-85
2021/12/22 18:11:11;;;;;;;18.02;10.38;;;;;;;;;;5075121;28;20150;-85
2021/12/22 18:13:37;;;;;;;14.57;9.07;;;;;;;;;;5073689;28;20125;-84
2021/12/22 18:16:03;;;;;;;15.40;8.70;;;;;;;;;;5073901;28;20091;-84
2021/12/22 18:18:29;;;;;;;14.70;9.02;;;;;;;;;;5075204;28;20076;-85
2021/12/22 18:20:55;;;;;;;15.10;9.60;;;;;;;;;;5074655;28;20040;-85
2021/12/22 18:23:21;;;;;;;16.30;8.65;;;;;;;;;;5073370;28;20044;-84
2021/12/22 18:25:47;;;;;;;15.40;8.82;;;;;;;;;;5073625;28;20048;-85
2021/12/22 18:28:13;;;;;;;23.02;16.25;;;;;;;;;;5073696;28;20045;-85
2021/12/22 18:30:41;;;;;;;17.02;10.73;;;;;;;;;;5073050;28;20057;-85
2021/12/22 18:33:07;;;;;;;18.00;10.20;;;;;;;;;;5074734;28;20052;-84
2021/12/22 18:35:35;;;;;;;19.23;10.75;;;;;;;;;;5074541;28;20044;-85
2021/12/22 18:38:07;;;;;;;16.75;10.65;;;;;;;;;;5074506;28;20048;-85
2021/12/22 18:40:47;;;;;;;19.13;10.98;;;;;;;;;;5073206;28;20056;-84
2021/12/22 18:43:14;;;;;;;17.27;9.90;;;;;;;;;;5074596;28;20052;-84
2021/12/22 18:45:40;;;;;;;17.95;10.30;;;;;;;;;;5073212;28;20067;-84
2021/12/22 18:48:07;;;;;;;16.60;9.60;;;;;;;;;;5074440;28;20052;-84
2021/12/22 18:50:34;;;;;;;20.40;10.18;;;;;;;;;;5056327;28;20067;-85
2021/12/22 18:53:00;;;;;;;19.60;11.40;;;;;;;;;;5072928;28;20049;-84
2021/12/22 18:55:26;;;;;;;18.70;9.60;;;;;;;;;;5072859;28;20190;-84
2021/12/22 18:57:52;;;;;;;18.10;10.25;;;;;;;;;;5073100;28;20060;-85
2021/12/22 19:00:18;;;;;;;15.68;10.43;;;;;;;;;;5072739;28;20464;-84
2021/12/22 19:02:44;;;;;;;15.45;9.82;;;;;;;;;;5073933;28;20515;-83
2021/12/22 19:05:10;;;;;;;17.45;9.27;;;;;;;;;;5072931;28;20448;-84
2021/12/22 19:07:36;;;;;;;19.65;11.55;;;;;;;;;;5072450;28;20048;-83
2021/12/22 19:10:03;;;;;;;17.17;10.05;;;;;;;;;;5074132;28;20115;-84
2021/12/22 19:12:29;;;;;;;16.88;10.15;;;;;;;;;;5072550;28;20535;-84
2021/12/22 19:14:55;;;;;;;19.02;11.02;;;;;;;;;;5073224;28;20068;-84
2021/12/22 19:17:22;;;;;;;22.88;16.05;;;;;;;;;;5072463;28;20484;-84
2021/12/22 19:19:48;;;;;;;18.48;9.77;;;;;;;;;;5073854;28;20388;-84
2021/12/22 19:22:14;;;;;;;17.77;10.70;;;;;;;;;;5072239;28;20040;-84
2021/12/22 19:24:40;;;;;;;16.55;10.23;;;;;;;;;;5072301;28;20044;-85
2021/12/22 19:27:06;;;;;;;14.73;9.80;;;;;;;;;;5073554;28;20063;-85
2021/12/22 19:29:32;;;;;;;17.02;9.80;;;;;;;;;;5072333;28;20052;-85
2021/12/22 19:31:58;;;;;;;15.60;9.45;;;;;;;;;;5071963;28;20468;-84
2021/12/22 19:34:24;;;;;;;17.60;9.25;;;;;;;;;;5073525;28;20033;-85
2021/12/22 19:36:51;;;;;;;19.73;11.00;;;;;;;;;;5072232;28;20036;-84
2021/12/22 19:39:16;;;;;;;18.50;9.70;;;;;;;;;;5071692;28;20193;-85
2021/12/22 19:41:42;;;;;;;17.55;9.10;;;;;;;;;;5073350;28;20426;-84
2021/12/22 19:44:14;;;;;;;15.63;9.15;;;;;;;;;;5071822;28;20051;-84
2021/12/22 19:46:40;;;;;;;15.85;9.55;;;;;;;;;;5071668;28;20052;-84
2021/12/22 19:49:06;;;;;;;15.45;8.90;;;;;;;;;;5072499;28;20037;-84
2021/12/22 19:51:32;;;;;;;18.45;10.77;;;;;;;;;;5072048;28;20114;-84
2021/12/22 19:53:58;;;;;;;19.17;11.23;;;;;;;;;;5071997;28;20051;-84
2021/12/22 19:56:24;;;;;;;21.50;11.48;;;;;;;;;;5072925;28;20048;-84
2021/12/22 19:58:50;;;;;;;32.00;16.35;;;;;;;;;;5055187;28;20044;-84
2021/12/22 20:01:16;;;;;;;24.02;13.57;;;;;;;;;;5071837;28;20437;-85
2021/12/22 20:03:45;;;;;;;20.30;11.68;;;;;;;;;;5073198;28;20036;-85
2021/12/22 20:06:12;;;;;;;16.13;10.00;;;;;;;;;;5071816;28;20032;-85
2021/12/22 20:08:39;;;;;;;16.98;10.43;;;;;;;;;;5071921;28;20480;-86
2021/12/22 20:11:05;;;;;;;18.98;12.15;;;;;;;;;;5071391;28;20501;-88
2021/12/22 20:13:31;;;;;;;17.05;10.00;;;;;;;;;;5071553;28;20040;-85
2021/12/22 20:15:58;;;;;;;19.10;10.75;;;;;;;;;;5072582;28;20036;-85
2021/12/22 20:18:24;;;;;;;18.38;9.80;;;;;;;;;;5071367;28;20048;-86
2021/12/22 20:20:50;;;;;;;17.08;10.30;;;;;;;;;;5071558;28;20041;-85
2021/12/22 20:23:16;;;;;;;13.75;8.35;;;;;;;;;;5071000;28;20375;-85
2021/12/22 20:25:43;;;;;;;17.27;10.32;;;;;;;;;;5072575;28;20040;-85
2021/12/22 20:28:09;;;;;;;17.05;9.70;;;;;;;;;;5071590;28;20437;-85
2021/12/22 20:30:35;;;;;;;16.65;9.52;;;;;;;;;;5072315;28;20052;-85
2021/12/22 20:33:02;;;;;;;17.30;9.93;;;;;;;;;;5072414;28;20546;-86
2021/12/22 20:35:29;;;;;;;17.63;10.40;;;;;;;;;;5071389;28;20068;-85
2021/12/22 20:37:55;;;;;;;17.67;10.43;;;;;;;;;;5071351;28;20044;-86
2021/12/22 20:40:25;;;;;;;16.27;10.38;;;;;;;;;;5068820;28;20055;-85
2021/12/22 20:42:51;;;;;;;16.90;9.77;;;;;;;;;;5070975;28;20106;-85
2021/12/22 20:45:21;;;;;;;18.10;9.88;;;;;;;;;;5071572;28;20045;-86
2021/12/22 20:47:48;;;;;;;16.58;9.88;;;;;;;;;;5071318;28;20048;-86
2021/12/22 20:50:14;;;;;;;18.52;9.88;;;;;;;;;;5071230;28;20526;-86
2021/12/22 20:52:40;;;;;;;15.07;9.75;;;;;;;;;;5070955;28;20052;-85
2021/12/22 20:55:07;;;;;;;17.95;9.60;;;;;;;;;;5071223;28;20036;-86
2021/12/22 20:57:34;;;;;;;16.80;8.65;;;;;;;;;;5071112;28;20392;-87
2021/12/22 21:00:00;;;;;;;14.65;8.52;;;;;;;;;;5071255;28;20055;-85
2021/12/22 21:02:28;;;;;;;14.30;8.45;;;;;;;;;;5071186;28;20044;-85
2021/12/22 21:04:53;;;;;;;14.73;9.10;;;;;;;;;;5054429;28;20048;-85
2021/12/22 21:07:19;;;;;;;16.70;9.48;;;;;;;;;;5070791;28;20461;-85
2021/12/22 21:09:45;;;;;;;18.75;9.55;;;;;;;;;;5071065;28;20055;-85
2021/12/22 21:12:13;;;;;;;15.40;10.50;;;;;;;;;;5072028;28;20043;-85
2021/12/22 21:14:39;;;;;;;22.38;15.07;;;;;;;;;;5071234;28;20040;-85
2021/12/22 21:17:05;;;;;;;15.85;10.45;;;;;;;;;;5071968;28;20440;-85
2021/12/22 21:19:31;;;;;;;15.85;9.65;;;;;;;;;;5071090;28;20128;-85
2021/12/22 21:21:57;;;;;;;17.33;9.60;;;;;;;;;;5054032;28;20057;-85
2021/12/22 21:24:23;;;;;;;17.58;9.10;;;;;;;;;;5070825;28;20376;-85
2021/12/22 21:26:49;;;;;;;15.98;8.93;;;;;;;;;;5071858;28;20037;-85
2021/12/22 21:29:15;;;;;;;18.60;9.43;;;;;;;;;;5071125;28;20503;-86
2021/12/22 21:31:41;;;;;;;15.85;8.48;;;;;;;;;;5070838;28;20056;-85
2021/12/22 21:34:07;;;;;;;17.00;9.05;;;;;;;;;;5070867;28;20041;-86
2021/12/22 21:36:33;;;;;;;22.95;13.25;;;;;;;;;;5070852;28;20047;-86
2021/12/22 21:38:59;;;;;;;16.75;9.77;;;;;;;;;;5074066;28;20515;-85
2021/12/22 21:41:25;;;;;;;17.80;9.93;;;;;;;;;;5074463;28;20036;-85
2021/12/22 21:43:51;;;;;;;15.52;9.05;;;;;;;;;;5057463;28;20044;-86
2021/12/22 21:46:17;;;;;;;18.23;10.55;;;;;;;;;;5075762;28;20450;-85
2021/12/22 21:48:43;;;;;;;16.60;10.02;;;;;;;;;;5075631;28;20076;-85
2021/12/22 21:51:09;;;;;;;16.05;9.57;;;;;;;;;;5074187;28;20494;-86
2021/12/22 21:53:35;;;;;;;17.08;10.25;;;;;;;;;;5075321;28;20387;-85
2021/12/22 21:56:01;;;;;;;20.73;10.27;;;;;;;;;;5075364;28;20037;-85
2021/12/22 21:58:27;;;;;;;17.10;9.60;;;;;;;;;;5073938;28;20540;-86
2021/12/22 22:00:53;;;;;;;17.85;10.63;;;;;;;;;;5074388;28;20060;-86
2021/12/22 22:03:19;;;;;;;18.77;10.35;;;;;;;;;;5073749;28;20483;-85
2021/12/22 22:05:46;;;;;;;19.27;10.48;;;;;;;;;;5074247;28;20056;-86
2021/12/22 22:08:12;;;;;;;16.77;9.73;;;;;;;;;;5073852;28;20071;-85
2021/12/22 22:10:40;;;;;;;16.98;9.60;;;;;;;;;;5073741;28;20123;-86
2021/12/22 22:13:06;;;;;;;18.08;10.63;;;;;;;;;;5075095;28;20043;-86
2021/12/22 22:15:33;;;;;;;19.70;10.70;;;;;;;;;;5075127;28;20484;-86
2021/12/22 22:17:59;;;;;;;19.10;10.93;;;;;;;;;;5073758;28;20041;-85
2021/12/22 22:20:25;;;;;;;16.73;10.52;;;;;;;;;;5073718;28;20072;-85
2021/12/22 22:22:51;;;;;;;17.55;10.48;;;;;;;;;;5073698;28;20076;-86
2021/12/22 22:25:20;;;;;;;13.73;9.77;;;;;;;;;;5073586;28;20037;-86
2021/12/22 22:27:49;;;;;;;22.67;11.48;;;;;;;;;;5074845;28;20040;-85
2021/12/22 22:30:15;;;;;;;18.25;11.35;;;;;;;;;;5056741;28;20487;-85
2021/12/22 22:32:42;;;;;;;16.33;9.73;;;;;;;;;;5073216;28;20101;-86
2021/12/22 22:35:09;;;;;;;22.77;10.65;;;;;;;;;;5074938;28;20036;-86
2021/12/22 22:37:35;;;;;;;19.13;11.10;;;;;;;;;;5073377;28;20459;-85
2021/12/22 22:40:01;;;;;;;21.55;11.68;;;;;;;;;;5073617;28;20044;-85
2021/12/22 22:42:29;;;;;;;20.65;10.57;;;;;;;;;;5073222;28;20396;-86
2021/12/22 22:44:56;;;;;;;22.38;12.00;;;;;;;;;;5073241;28;20480;-85
2021/12/22 22:47:22;;;;;;;20.98;11.85;;;;;;;;;;5073099;28;20125;-85
2021/12/22 22:49:48;;;;;;;20.60;11.50;;;;;;;;;;5056235;28;20059;-86
2021/12/22 22:52:14;;;;;;;23.25;12.38;;;;;;;;;;5073389;28;20048;-85
